This is the latest recevied weather packets stored in our database for station/object DL7HMX-13. If no packets are shown the sender has not sent any weather packets the latest 10 day(s).
| Time | Temp. | Humidity | Pressure | Rain* | Wind** | Luminosity | Snow |
|---|---|---|---|---|---|---|---|
| 1777969231 | 20° C | 58% | 1008.2 hPa | 0 mm | - | 474 W/m² | - |
| 1777968617 | 20.56° C | 58% | 1008.2 hPa | 0 mm | - | 474 W/m² | - |
| 1777968020 | 20° C | 60% | 1008.4 hPa | 0 mm | - | 466 W/m² | - |
| 1777967424 | 19.44° C | 61% | 1008.5 hPa | 0 mm | - | 455 W/m² | - |
| 1777966826 | 19.44° C | 59% | 1008.5 hPa | 0 mm | - | 431 W/m² | - |
| 1777966230 | 18.89° C | 61% | 1008.4 hPa | 0 mm | - | 401 W/m² | - |
| 1777965632 | 18.89° C | 63% | 1008.5 hPa | 0 mm | - | 384 W/m² | - |
| 1777965018 | 18.89° C | 65% | 1008.7 hPa | 0 mm | - | 357 W/m² | - |
| 1777964422 | 18.33° C | 63% | 1008.7 hPa | 0 mm | - | 332 W/m² | - |
| 1777963825 | 17.78° C | 70% | 1008.6 hPa | 0 mm | - | 304 W/m² | - |
| 1777963227 | 16.67° C | 75% | 1008.6 hPa | 0 mm | - | 277 W/m² | - |
| 1777962630 | 16.67° C | 76% | 1008.8 hPa | 0 mm | - | 249 W/m² | - |
| 1777962017 | 17.22° C | 75% | 1008.8 hPa | 0 mm | - | 222 W/m² | - |
| 1777961420 | 16.67° C | 76% | 1008.9 hPa | 0 mm | - | 196 W/m² | - |
| 1777960824 | 15.56° C | 81% | 1008.9 hPa | 0 mm | - | 171 W/m² | - |
| 1777960227 | 16.11° C | 79% | 1008.9 hPa | 0 mm | - | 146 W/m² | - |
| 1777959629 | 15° C | 81% | 1008.9 hPa | 0 mm | - | 126 W/m² | - |
| 1777959017 | 14.44° C | 84% | 1008.9 hPa | 0 mm | - | 109 W/m² | - |
| 1777958419 | 13.89° C | 86% | 1008.9 hPa | 0 mm | - | 91 W/m² | - |
| 1777957822 | 13.33° C | 87% | 1009 hPa | 0 mm | - | 74 W/m² | - |
| 1777957225 | 12.78° C | 89% | 1008.9 hPa | 0 mm | - | 58 W/m² | - |
| 1777956627 | 12.22° C | 90% | 1009 hPa | 0 mm | - | 43 W/m² | - |
| 1777956030 | 11.67° C | 94% | 1009.1 hPa | 0 mm | - | 32 W/m² | - |
| 1777955417 | 11.67° C | 93% | 1008.9 hPa | 0 mm | - | 21 W/m² | - |
| 1777954820 | 11.67° C | 93% | 1008.9 hPa | 0 mm | - | 17 W/m² | - |
* Rain latest hour (hover to see other rain measurements)
** Current wind speed in m/s (hover to see current wind gust speed)